sensor_id;sensor_type;location;lat;lon;timestamp;pressure;altitude;pressure_sealevel;temperature;humidity
216;BME280;64590;48.81286795;9.14184224;2023-01-28T00:00:30;98878.25;;;1.86;70.35
216;BME280;64590;48.81286795;9.14184224;2023-01-28T00:02:56;98864.09;;;1.93;70.79
216;BME280;64590;48.81286795;9.14184224;2023-01-28T00:05:23;98866.31;;;1.82;70.66
216;BME280;64590;48.81286795;9.14184224;2023-01-28T00:07:50;98854.75;;;2.03;70.10
216;BME280;64590;48.81286795;9.14184224;2023-01-28T00:10:18;98857.97;;;1.96;70.17
216;BME280;64590;48.81286795;9.14184224;2023-01-28T00:12:45;98858.75;;;1.96;70.39
216;BME280;64590;48.81286795;9.14184224;2023-01-28T00:15:11;98855.88;;;2.02;70.21
216;BME280;64590;48.81286795;9.14184224;2023-01-28T00:17:38;98858.75;;;1.96;69.77
216;BME280;64590;48.81286795;9.14184224;2023-01-28T00:20:06;98854.75;;;1.94;70.17
216;BME280;64590;48.81286795;9.14184224;2023-01-28T00:22:32;98862.63;;;1.78;70.54
216;BME280;64590;48.81286795;9.14184224;2023-01-28T00:24:59;98869.91;;;1.83;70.09
216;BME280;64590;48.81286795;9.14184224;2023-01-28T00:27:27;98858.44;;;1.98;70.28
216;BME280;64590;48.81286795;9.14184224;2023-01-28T00:29:56;98864.41;;;2.17;69.86
216;BME280;64590;48.81286795;9.14184224;2023-01-28T00:32:23;98860.69;;;1.79;70.58
216;BME280;64590;48.81286795;9.14184224;2023-01-28T00:34:51;98865.84;;;1.89;70.49
216;BME280;64590;48.81286795;9.14184224;2023-01-28T00:37:18;98861.50;;;1.79;71.16
216;BME280;64590;48.81286795;9.14184224;2023-01-28T00:39:44;98855.06;;;1.92;70.26
216;BME280;64590;48.81286795;9.14184224;2023-01-28T00:42:11;98849.44;;;1.80;71.14
216;BME280;64590;48.81286795;9.14184224;2023-01-28T00:44:39;98840.59;;;1.83;70.61
216;BME280;64590;48.81286795;9.14184224;2023-01-28T00:47:05;98839.47;;;1.93;70.41
216;BME280;64590;48.81286795;9.14184224;2023-01-28T00:49:32;98849.59;;;1.84;70.72
216;BME280;64590;48.81286795;9.14184224;2023-01-28T00:51:58;98842.50;;;2.00;70.79
216;BME280;64590;48.81286795;9.14184224;2023-01-28T00:54:25;98849.91;;;1.91;70.30
216;BME280;64590;48.81286795;9.14184224;2023-01-28T00:56:52;98846.88;;;1.84;70.24
216;BME280;64590;48.81286795;9.14184224;2023-01-28T00:59:18;98844.13;;;1.92;70.97
216;BME280;64590;48.81286795;9.14184224;2023-01-28T01:01:47;98850.84;;;2.12;70.03
216;BME280;64590;48.81286795;9.14184224;2023-01-28T01:04:14;98846.22;;;1.95;70.58
216;BME280;64590;48.81286795;9.14184224;2023-01-28T01:06:52;98846.22;;;1.95;70.23
216;BME280;64590;48.81286795;9.14184224;2023-01-28T01:09:18;98843.47;;;1.78;70.78
216;BME280;64590;48.81286795;9.14184224;2023-01-28T01:11:46;98839.78;;;2.00;70.16
216;BME280;64590;48.81286795;9.14184224;2023-01-28T01:14:13;98848.47;;;1.85;70.89
216;BME280;64590;48.81286795;9.14184224;2023-01-28T01:16:40;98842.16;;;2.10;70.08
216;BME280;64590;48.81286795;9.14184224;2023-01-28T01:19:08;98855.22;;;1.87;70.78
216;BME280;64590;48.81286795;9.14184224;2023-01-28T01:21:35;98851.22;;;1.85;70.98
216;BME280;64590;48.81286795;9.14184224;2023-01-28T01:24:01;98853.25;;;2.22;69.58
216;BME280;64590;48.81286795;9.14184224;2023-01-28T01:26:28;98857.16;;;1.95;70.90
216;BME280;64590;48.81286795;9.14184224;2023-01-28T01:28:56;98865.69;;;1.94;71.47
216;BME280;64590;48.81286795;9.14184224;2023-01-28T01:31:23;98854.38;;;2.21;70.73
216;BME280;64590;48.81286795;9.14184224;2023-01-28T01:33:51;98857.63;;;2.15;70.95
216;BME280;64590;48.81286795;9.14184224;2023-01-28T01:36:19;98862.59;;;2.21;71.02
216;BME280;64590;48.81286795;9.14184224;2023-01-28T01:38:46;98853.94;;;2.02;71.63
216;BME280;64590;48.81286795;9.14184224;2023-01-28T01:41:21;98853.75;;;1.98;72.34
216;BME280;64590;48.81286795;9.14184224;2023-01-28T01:43:50;98875.84;;;2.02;70.96
216;BME280;64590;48.81286795;9.14184224;2023-01-28T01:46:20;98862.47;;;2.01;71.31
216;BME280;64590;48.81286795;9.14184224;2023-01-28T01:48:48;98864.91;;;1.85;71.79
216;BME280;64590;48.81286795;9.14184224;2023-01-28T01:51:20;98870.50;;;1.71;72.47
216;BME280;64590;48.81286795;9.14184224;2023-01-28T01:53:50;98862.97;;;1.85;72.76
216;BME280;64590;48.81286795;9.14184224;2023-01-28T01:56:21;98868.91;;;2.05;71.77
216;BME280;64590;48.81286795;9.14184224;2023-01-28T01:58:52;98865.84;;;2.06;71.10
216;BME280;64590;48.81286795;9.14184224;2023-01-28T02:01:22;98870.69;;;1.92;72.03
216;BME280;64590;48.81286795;9.14184224;2023-01-28T02:03:55;98864.72;;;1.98;71.52
216;BME280;64590;48.81286795;9.14184224;2023-01-28T02:06:26;98871.31;;;2.06;71.05
216;BME280;64590;48.81286795;9.14184224;2023-01-28T02:08:54;98861.16;;;1.98;71.90
216;BME280;64590;48.81286795;9.14184224;2023-01-28T02:11:22;98868.56;;;1.97;71.64
216;BME280;64590;48.81286795;9.14184224;2023-01-28T02:13:53;98863.28;;;2.01;72.00
216;BME280;64590;48.81286795;9.14184224;2023-01-28T02:16:21;98864.56;;;1.95;72.20
216;BME280;64590;48.81286795;9.14184224;2023-01-28T02:18:49;98864.91;;;1.93;72.52
216;BME280;64590;48.81286795;9.14184224;2023-01-28T02:21:34;98869.72;;;1.96;71.74
216;BME280;64590;48.81286795;9.14184224;2023-01-28T02:24:21;98861.03;;;2.03;71.51
216;BME280;64590;48.81286795;9.14184224;2023-01-28T02:27:01;98863.72;;;2.29;71.68
216;BME280;64590;48.81286795;9.14184224;2023-01-28T02:29:37;98873.06;;;2.28;70.91
216;BME280;64590;48.81286795;9.14184224;2023-01-28T02:32:14;98876.91;;;2.44;70.22
216;BME280;64590;48.81286795;9.14184224;2023-01-28T02:34:47;98873.09;;;2.02;71.96
216;BME280;64590;48.81286795;9.14184224;2023-01-28T02:37:20;98877.78;;;2.02;72.39
216;BME280;64590;48.81286795;9.14184224;2023-01-28T02:39:51;98873.25;;;1.97;71.73
216;BME280;64590;48.81286795;9.14184224;2023-01-28T02:42:22;98875.03;;;2.02;71.82
216;BME280;64590;48.81286795;9.14184224;2023-01-28T02:44:52;98884.38;;;1.75;72.81
216;BME280;64590;48.81286795;9.14184224;2023-01-28T02:47:19;98879.38;;;1.77;73.17
216;BME280;64590;48.81286795;9.14184224;2023-01-28T02:50:06;98873.72;;;2.08;72.08
216;BME280;64590;48.81286795;9.14184224;2023-01-28T02:52:45;98873.56;;;2.13;71.36
216;BME280;64590;48.81286795;9.14184224;2023-01-28T02:55:39;98875.50;;;1.95;72.17
216;BME280;64590;48.81286795;9.14184224;2023-01-28T02:58:15;98875.84;;;1.93;72.76
216;BME280;64590;48.81286795;9.14184224;2023-01-28T03:00:49;98891.94;;;2.04;72.56
216;BME280;64590;48.81286795;9.14184224;2023-01-28T03:03:25;98884.69;;;1.99;72.58
216;BME280;64590;48.81286795;9.14184224;2023-01-28T03:05:57;98882.75;;;1.91;72.55
216;BME280;64590;48.81286795;9.14184224;2023-01-28T03:08:34;98889.06;;;2.09;71.71
216;BME280;64590;48.81286795;9.14184224;2023-01-28T03:11:20;98889.34;;;2.16;71.65
216;BME280;64590;48.81286795;9.14184224;2023-01-28T03:14:06;98884.16;;;2.32;71.55
216;BME280;64590;48.81286795;9.14184224;2023-01-28T03:16:53;98897.25;;;2.09;72.81
216;BME280;64590;48.81286795;9.14184224;2023-01-28T03:19:39;98892.06;;;2.24;71.53
216;BME280;64590;48.81286795;9.14184224;2023-01-28T03:22:24;98895.63;;;2.25;71.40
216;BME280;64590;48.81286795;9.14184224;2023-01-28T03:25:18;98891.28;;;2.15;72.02
216;BME280;64590;48.81286795;9.14184224;2023-01-28T03:28:07;98890.81;;;2.05;71.77
216;BME280;64590;48.81286795;9.14184224;2023-01-28T03:30:59;98886.78;;;2.28;71.65
216;BME280;64590;48.81286795;9.14184224;2023-01-28T03:33:52;98894.03;;;1.89;72.95
216;BME280;64590;48.81286795;9.14184224;2023-01-28T03:36:37;98893.53;;;2.13;72.69
216;BME280;64590;48.81286795;9.14184224;2023-01-28T03:39:32;98888.88;;;1.96;72.66
216;BME280;64590;48.81286795;9.14184224;2023-01-28T03:42:02;98891.59;;;1.79;74.10
216;BME280;64590;48.81286795;9.14184224;2023-01-28T03:44:29;98898.06;;;2.01;73.88
216;BME280;64590;48.81286795;9.14184224;2023-01-28T03:47:13;98894.53;;;1.91;74.00
216;BME280;64590;48.81286795;9.14184224;2023-01-28T03:49:43;98900.63;;;1.88;74.58
216;BME280;64590;48.81286795;9.14184224;2023-01-28T03:52:10;98906.56;;;1.82;74.80
216;BME280;64590;48.81286795;9.14184224;2023-01-28T03:54:37;98903.03;;;1.98;74.40
216;BME280;64590;48.81286795;9.14184224;2023-01-28T03:57:03;98907.72;;;2.07;73.89
216;BME280;64590;48.81286795;9.14184224;2023-01-28T03:59:32;98899.81;;;1.88;74.64
216;BME280;64590;48.81286795;9.14184224;2023-01-28T04:01:59;98903.69;;;1.87;74.78
216;BME280;64590;48.81286795;9.14184224;2023-01-28T04:04:28;98907.22;;;2.05;74.81
216;BME280;64590;48.81286795;9.14184224;2023-01-28T04:06:58;98902.56;;;1.79;76.16
216;BME280;64590;48.81286795;9.14184224;2023-01-28T04:09:54;98904.34;;;2.01;75.00
216;BME280;64590;48.81286795;9.14184224;2023-01-28T04:12:41;98906.75;;;2.03;75.37
216;BME280;64590;48.81286795;9.14184224;2023-01-28T04:15:09;98901.09;;;1.90;75.65
216;BME280;64590;48.81286795;9.14184224;2023-01-28T04:17:43;98904.50;;;1.96;75.27
216;BME280;64590;48.81286795;9.14184224;2023-01-28T04:20:13;98907.72;;;2.07;74.78
216;BME280;64590;48.81286795;9.14184224;2023-01-28T04:22:41;98909.81;;;1.84;76.02
216;BME280;64590;48.81286795;9.14184224;2023-01-28T04:25:09;98907.69;;;1.63;76.72
216;BME280;64590;48.81286795;9.14184224;2023-01-28T04:27:36;98915.72;;;1.60;76.96
216;BME280;64590;48.81286795;9.14184224;2023-01-28T04:30:15;98920.88;;;1.61;77.29
216;BME280;64590;48.81286795;9.14184224;2023-01-28T04:33:02;98920.91;;;1.79;76.95
216;BME280;64590;48.81286795;9.14184224;2023-01-28T04:35:51;98923.66;;;1.87;76.27
216;BME280;64590;48.81286795;9.14184224;2023-01-28T04:38:35;98921.19;;;1.51;77.25
216;BME280;64590;48.81286795;9.14184224;2023-01-28T04:41:21;98927.19;;;1.79;76.75
216;BME280;64590;48.81286795;9.14184224;2023-01-28T04:43:48;98929.13;;;1.87;76.98
216;BME280;64590;48.81286795;9.14184224;2023-01-28T04:46:33;98924.78;;;2.04;76.15
216;BME280;64590;48.81286795;9.14184224;2023-01-28T04:49:02;98936.06;;;2.11;75.72
216;BME280;64590;48.81286795;9.14184224;2023-01-28T04:51:43;98934.59;;;1.87;76.77
216;BME280;64590;48.81286795;9.14184224;2023-01-28T04:54:29;98929.94;;;1.88;76.94
216;BME280;64590;48.81286795;9.14184224;2023-01-28T04:56:58;98934.75;;;1.91;77.13
216;BME280;64590;48.81286795;9.14184224;2023-01-28T04:59:25;98936.41;;;2.01;76.54
216;BME280;64590;48.81286795;9.14184224;2023-01-28T05:01:52;98937.81;;;2.07;75.90
216;BME280;64590;48.81286795;9.14184224;2023-01-28T05:04:20;98934.94;;;2.03;75.68
216;BME280;64590;48.81286795;9.14184224;2023-01-28T05:06:46;98944.91;;;2.34;74.85
216;BME280;64590;48.81286795;9.14184224;2023-01-28T05:09:20;98952.31;;;2.24;74.50
216;BME280;64590;48.81286795;9.14184224;2023-01-28T05:11:50;98939.44;;;2.08;74.88
216;BME280;64590;48.81286795;9.14184224;2023-01-28T05:14:17;98947.81;;;2.20;75.07
216;BME280;64590;48.81286795;9.14184224;2023-01-28T05:16:48;98950.06;;;1.92;75.74
216;BME280;64590;48.81286795;9.14184224;2023-01-28T05:19:16;98946.03;;;2.15;74.70
216;BME280;64590;48.81286795;9.14184224;2023-01-28T05:21:45;98939.44;;;1.99;74.70
216;BME280;64590;48.81286795;9.14184224;2023-01-28T05:24:20;98950.88;;;2.01;74.75
216;BME280;64590;48.81286795;9.14184224;2023-01-28T05:26:46;98949.75;;;1.85;76.17
216;BME280;64590;48.81286795;9.14184224;2023-01-28T05:29:14;98949.75;;;1.85;76.74
216;BME280;64590;48.81286795;9.14184224;2023-01-28T05:31:42;98944.63;;;2.09;75.70
216;BME280;64590;48.81286795;9.14184224;2023-01-28T05:34:08;98947.81;;;1.94;76.25
216;BME280;64590;48.81286795;9.14184224;2023-01-28T05:36:35;98938.63;;;1.90;76.91
216;BME280;64590;48.81286795;9.14184224;2023-01-28T05:39:12;98950.09;;;2.09;76.08
216;BME280;64590;48.81286795;9.14184224;2023-01-28T05:41:39;98950.09;;;2.01;75.03
216;BME280;64590;48.81286795;9.14184224;2023-01-28T05:44:06;98940.09;;;2.05;74.95
216;BME280;64590;48.81286795;9.14184224;2023-01-28T05:46:56;98939.91;;;1.75;76.27
216;BME280;64590;48.81286795;9.14184224;2023-01-28T05:49:43;98944.59;;;2.01;76.12
216;BME280;64590;48.81286795;9.14184224;2023-01-28T05:52:46;98950.91;;;2.27;76.09
216;BME280;64590;48.81286795;9.14184224;2023-01-28T05:55:21;98948.78;;;2.33;75.37
216;BME280;64590;48.81286795;9.14184224;2023-01-28T05:57:48;98958.47;;;2.21;76.04
216;BME280;64590;48.81286795;9.14184224;2023-01-28T06:00:17;98954.25;;;2.33;75.73
216;BME280;64590;48.81286795;9.14184224;2023-01-28T06:02:46;98949.44;;;2.04;76.34
216;BME280;64590;48.81286795;9.14184224;2023-01-28T06:05:14;98954.25;;;2.07;76.86
216;BME280;64590;48.81286795;9.14184224;2023-01-28T06:07:43;98960.38;;;1.95;76.68
216;BME280;64590;48.81286795;9.14184224;2023-01-28T06:10:10;98959.59;;;2.12;75.30
216;BME280;64590;48.81286795;9.14184224;2023-01-28T06:12:37;98962.78;;;2.05;75.95
216;BME280;64590;48.81286795;9.14184224;2023-01-28T06:15:32;98948.09;;;1.66;76.93
216;BME280;64590;48.81286795;9.14184224;2023-01-28T06:18:13;98979.19;;;1.88;76.72
216;BME280;64590;48.81286795;9.14184224;2023-01-28T06:20:40;98986.25;;;1.80;76.99
216;BME280;64590;48.81286795;9.14184224;2023-01-28T06:23:07;98981.47;;;1.94;77.11
216;BME280;64590;48.81286795;9.14184224;2023-01-28T06:25:33;98985.00;;;1.86;76.87
216;BME280;64590;48.81286795;9.14184224;2023-01-28T06:28:05;98992.53;;;1.81;77.00
216;BME280;64590;48.81286795;9.14184224;2023-01-28T06:30:31;98997.25;;;1.97;77.16
216;BME280;64590;48.81286795;9.14184224;2023-01-28T06:32:58;99001.47;;;2.12;77.26
216;BME280;64590;48.81286795;9.14184224;2023-01-28T06:35:26;99005.00;;;2.04;77.25
216;BME280;64590;48.81286795;9.14184224;2023-01-28T06:37:52;99002.41;;;2.08;77.05
216;BME280;64590;48.81286795;9.14184224;2023-01-28T06:40:20;99013.56;;;2.29;76.80
216;BME280;64590;48.81286795;9.14184224;2023-01-28T06:42:47;99009.53;;;2.17;76.87
216;BME280;64590;48.81286795;9.14184224;2023-01-28T06:45:14;99008.72;;;2.34;75.82
216;BME280;64590;48.81286795;9.14184224;2023-01-28T06:47:40;99014.19;;;2.17;76.63
216;BME280;64590;48.81286795;9.14184224;2023-01-28T06:50:08;99015.47;;;2.11;76.60
216;BME280;64590;48.81286795;9.14184224;2023-01-28T06:52:36;99015.81;;;2.26;76.56
216;BME280;64590;48.81286795;9.14184224;2023-01-28T06:55:04;99024.97;;;2.13;77.10
216;BME280;64590;48.81286795;9.14184224;2023-01-28T06:57:30;99023.03;;;2.05;77.28
216;BME280;64590;48.81286795;9.14184224;2023-01-28T06:59:57;99019.34;;;2.18;76.87
216;BME280;64590;48.81286795;9.14184224;2023-01-28T07:02:23;99022.38;;;2.17;76.68
216;BME280;64590;48.81286795;9.14184224;2023-01-28T07:04:50;99025.47;;;2.33;76.67
216;BME280;64590;48.81286795;9.14184224;2023-01-28T07:07:16;99024.19;;;2.21;76.38
216;BME280;64590;48.81286795;9.14184224;2023-01-28T07:09:44;99024.66;;;2.23;76.94
216;BME280;64590;48.81286795;9.14184224;2023-01-28T07:12:11;99028.72;;;2.52;75.20
216;BME280;64590;48.81286795;9.14184224;2023-01-28T07:14:37;99034.50;;;2.33;76.12
216;BME280;64590;48.81286795;9.14184224;2023-01-28T07:17:04;99040.94;;;2.20;76.71
216;BME280;64590;48.81286795;9.14184224;2023-01-28T07:19:30;99032.75;;;2.37;75.88
216;BME280;64590;48.81286795;9.14184224;2023-01-28T07:21:57;99040.31;;;2.32;76.15
216;BME280;64590;48.81286795;9.14184224;2023-01-28T07:24:25;99027.88;;;2.25;76.25
216;BME280;64590;48.81286795;9.14184224;2023-01-28T07:26:53;99039.34;;;2.28;76.72
216;BME280;64590;48.81286795;9.14184224;2023-01-28T07:29:19;99039.97;;;2.33;76.41
216;BME280;64590;48.81286795;9.14184224;2023-01-28T07:31:46;99031.13;;;2.45;75.62
216;BME280;64590;48.81286795;9.14184224;2023-01-28T07:34:13;99039.50;;;2.22;76.49
216;BME280;64590;48.81286795;9.14184224;2023-01-28T07:36:39;99044.31;;;2.34;76.88
216;BME280;64590;48.81286795;9.14184224;2023-01-28T07:39:06;99049.66;;;2.31;77.07
216;BME280;64590;48.81286795;9.14184224;2023-01-28T07:41:33;99043.34;;;2.21;76.97
216;BME280;64590;48.81286795;9.14184224;2023-01-28T07:44:05;99046.25;;;2.34;77.03
216;BME280;64590;48.81286795;9.14184224;2023-01-28T07:46:32;99052.88;;;2.41;76.30
216;BME280;64590;48.81286795;9.14184224;2023-01-28T07:48:59;99050.91;;;2.16;76.80
216;BME280;64590;48.81286795;9.14184224;2023-01-28T07:51:25;99057.88;;;2.31;77.02
216;BME280;64590;48.81286795;9.14184224;2023-01-28T07:53:52;99059.94;;;2.16;76.82
216;BME280;64590;48.81286795;9.14184224;2023-01-28T07:56:19;99049.94;;;2.12;77.49
216;BME280;64590;48.81286795;9.14184224;2023-01-28T07:58:48;99059.34;;;2.37;76.96
216;BME280;64590;48.81286795;9.14184224;2023-01-28T08:01:16;99060.94;;;2.46;76.75
216;BME280;64590;48.81286795;9.14184224;2023-01-28T08:03:43;99061.75;;;2.38;76.03
216;BME280;64590;48.81286795;9.14184224;2023-01-28T08:06:10;99070.41;;;2.23;76.47
216;BME280;64590;48.81286795;9.14184224;2023-01-28T08:08:36;99061.88;;;2.33;76.48
216;BME280;64590;48.81286795;9.14184224;2023-01-28T08:11:06;99070.91;;;2.34;76.58
216;BME280;64590;48.81286795;9.14184224;2023-01-28T08:13:33;99064.03;;;2.62;75.25
216;BME280;64590;48.81286795;9.14184224;2023-01-28T08:16:00;99068.69;;;2.53;76.12
216;BME280;64590;48.81286795;9.14184224;2023-01-28T08:18:28;99070.44;;;2.40;76.19
216;BME280;64590;48.81286795;9.14184224;2023-01-28T08:20:55;99074.16;;;2.44;76.55
216;BME280;64590;48.81286795;9.14184224;2023-01-28T08:23:22;99073.19;;;2.49;75.90
216;BME280;64590;48.81286795;9.14184224;2023-01-28T08:25:51;99081.09;;;2.50;76.14
216;BME280;64590;48.81286795;9.14184224;2023-01-28T08:28:18;99082.53;;;2.39;76.42
216;BME280;64590;48.81286795;9.14184224;2023-01-28T08:30:46;99078.69;;;2.58;76.34
216;BME280;64590;48.81286795;9.14184224;2023-01-28T08:33:14;99084.78;;;2.37;76.84
216;BME280;64590;48.81286795;9.14184224;2023-01-28T08:35:43;99088.03;;;2.57;76.61
216;BME280;64590;48.81286795;9.14184224;2023-01-28T08:38:11;99076.75;;;2.58;77.03
216;BME280;64590;48.81286795;9.14184224;2023-01-28T08:40:39;99080.13;;;2.64;76.37
216;BME280;64590;48.81286795;9.14184224;2023-01-28T08:43:06;99081.09;;;2.59;76.52
216;BME280;64590;48.81286795;9.14184224;2023-01-28T08:45:33;99082.88;;;2.55;76.68
216;BME280;64590;48.81286795;9.14184224;2023-01-28T08:48:01;99085.63;;;2.64;76.46
216;BME280;64590;48.81286795;9.14184224;2023-01-28T08:50:29;99076.41;;;2.86;75.14
216;BME280;64590;48.81286795;9.14184224;2023-01-28T08:52:59;99077.06;;;2.82;75.92
216;BME280;64590;48.81286795;9.14184224;2023-01-28T08:55:27;99081.59;;;2.78;75.74
216;BME280;64590;48.81286795;9.14184224;2023-01-28T08:57:54;99076.41;;;2.68;75.72
216;BME280;64590;48.81286795;9.14184224;2023-01-28T09:00:21;99084.63;;;2.60;76.43
216;BME280;64590;48.81286795;9.14184224;2023-01-28T09:02:50;99089.31;;;2.85;75.86
216;BME280;64590;48.81286795;9.14184224;2023-01-28T09:05:16;99088.03;;;3.00;75.40
216;BME280;64590;48.81286795;9.14184224;2023-01-28T09:07:43;99076.13;;;2.87;75.58
216;BME280;64590;48.81286795;9.14184224;2023-01-28T09:10:11;99079.47;;;2.84;74.61
216;BME280;64590;48.81286795;9.14184224;2023-01-28T09:12:38;99077.53;;;2.84;74.48
216;BME280;64590;48.81286795;9.14184224;2023-01-28T09:15:06;99090.63;;;2.70;74.63
216;BME280;64590;48.81286795;9.14184224;2023-01-28T09:17:33;99080.94;;;2.81;74.02
216;BME280;64590;48.81286795;9.14184224;2023-01-28T09:20:00;99089.97;;;2.73;74.70
216;BME280;64590;48.81286795;9.14184224;2023-01-28T09:22:26;99096.59;;;2.90;73.41
216;BME280;64590;48.81286795;9.14184224;2023-01-28T09:24:53;99101.28;;;2.80;74.45
216;BME280;64590;48.81286795;9.14184224;2023-01-28T09:27:21;99103.34;;;2.83;74.32
216;BME280;64590;48.81286795;9.14184224;2023-01-28T09:29:47;99107.22;;;2.91;73.91
216;BME280;64590;48.81286795;9.14184224;2023-01-28T09:32:14;99110.63;;;2.97;73.65
216;BME280;64590;48.81286795;9.14184224;2023-01-28T09:34:40;99115.13;;;2.75;73.75
216;BME280;64590;48.81286795;9.14184224;2023-01-28T09:37:08;99118.84;;;2.88;74.06
216;BME280;64590;48.81286795;9.14184224;2023-01-28T09:39:35;99112.22;;;2.63;74.24
216;BME280;64590;48.81286795;9.14184224;2023-01-28T09:42:34;99119.31;;;2.64;74.11
216;BME280;64590;48.81286795;9.14184224;2023-01-28T09:45:10;99125.44;;;2.61;74.42
216;BME280;64590;48.81286795;9.14184224;2023-01-28T09:47:42;99129.63;;;2.84;73.57
216;BME280;64590;48.81286795;9.14184224;2023-01-28T09:50:14;99125.75;;;2.86;73.44
216;BME280;64590;48.81286795;9.14184224;2023-01-28T09:52:41;99126.28;;;2.96;72.95
216;BME280;64590;48.81286795;9.14184224;2023-01-28T09:55:16;99124.00;;;2.98;72.87
216;BME280;64590;48.81286795;9.14184224;2023-01-28T09:57:49;99122.41;;;2.97;73.11
216;BME280;64590;48.81286795;9.14184224;2023-01-28T10:00:19;99120.94;;;3.00;72.40
216;BME280;64590;48.81286795;9.14184224;2023-01-28T10:02:59;99138.34;;;2.87;73.23
216;BME280;64590;48.81286795;9.14184224;2023-01-28T10:05:34;99133.03;;;2.81;73.27
216;BME280;64590;48.81286795;9.14184224;2023-01-28T10:08:16;99129.00;;;2.88;73.77
216;BME280;64590;48.81286795;9.14184224;2023-01-28T10:10:49;99136.91;;;2.80;73.00
216;BME280;64590;48.81286795;9.14184224;2023-01-28T10:13:24;99133.50;;;2.75;72.85
216;BME280;64590;48.81286795;9.14184224;2023-01-28T10:15:59;99127.22;;;2.83;74.14
216;BME280;64590;48.81286795;9.14184224;2023-01-28T10:18:34;99124.16;;;3.02;73.89
216;BME280;64590;48.81286795;9.14184224;2023-01-28T10:21:07;99120.47;;;2.98;73.01
216;BME280;64590;48.81286795;9.14184224;2023-01-28T10:23:44;99122.88;;;3.08;73.11
216;BME280;64590;48.81286795;9.14184224;2023-01-28T10:26:19;99114.78;;;3.11;73.14
216;BME280;64590;48.81286795;9.14184224;2023-01-28T10:28:52;99120.94;;;2.82;74.01
216;BME280;64590;48.81286795;9.14184224;2023-01-28T10:31:21;99111.75;;;2.96;73.81
216;BME280;64590;48.81286795;9.14184224;2023-01-28T10:33:48;99113.50;;;3.00;73.73
216;BME280;64590;48.81286795;9.14184224;2023-01-28T10:36:15;99106.75;;;2.98;74.40
216;BME280;64590;48.81286795;9.14184224;2023-01-28T10:38:42;99110.09;;;3.12;74.19
216;BME280;64590;48.81286795;9.14184224;2023-01-28T10:41:10;99119.78;;;3.18;72.16
216;BME280;64590;48.81286795;9.14184224;2023-01-28T10:43:40;99106.09;;;3.01;74.19
216;BME280;64590;48.81286795;9.14184224;2023-01-28T10:46:11;99113.63;;;3.30;72.87
216;BME280;64590;48.81286795;9.14184224;2023-01-28T10:48:42;99105.91;;;3.23;73.66
216;BME280;64590;48.81286795;9.14184224;2023-01-28T10:51:10;99106.25;;;3.13;72.65
216;BME280;64590;48.81286795;9.14184224;2023-01-28T10:53:37;99108.00;;;3.26;72.56
216;BME280;64590;48.81286795;9.14184224;2023-01-28T10:56:06;99107.69;;;3.19;73.19
216;BME280;64590;48.81286795;9.14184224;2023-01-28T10:58:36;99110.59;;;3.23;73.16
216;BME280;64590;48.81286795;9.14184224;2023-01-28T11:01:13;99112.53;;;3.31;72.32
216;BME280;64590;48.81286795;9.14184224;2023-01-28T11:03:52;99113.50;;;3.18;73.11
216;BME280;64590;48.81286795;9.14184224;2023-01-28T11:06:24;99112.84;;;3.21;72.81
216;BME280;64590;48.81286795;9.14184224;2023-01-28T11:08:51;99113.19;;;3.02;73.63
216;BME280;64590;48.81286795;9.14184224;2023-01-28T11:11:23;99118.34;;;3.12;73.32
216;BME280;64590;48.81286795;9.14184224;2023-01-28T11:13:52;99112.03;;;3.20;74.51
216;BME280;64590;48.81286795;9.14184224;2023-01-28T11:16:21;99109.13;;;3.34;73.07
216;BME280;64590;48.81286795;9.14184224;2023-01-28T11:18:51;99115.28;;;3.22;72.92
216;BME280;64590;48.81286795;9.14184224;2023-01-28T11:21:20;99119.66;;;3.15;73.40
216;BME280;64590;48.81286795;9.14184224;2023-01-28T11:23:50;99122.72;;;3.13;73.84
216;BME280;64590;48.81286795;9.14184224;2023-01-28T11:26:20;99118.34;;;3.03;73.07
216;BME280;64590;48.81286795;9.14184224;2023-01-28T11:28:48;99115.44;;;3.26;72.37
216;BME280;64590;48.81286795;9.14184224;2023-01-28T11:31:16;99105.41;;;3.12;73.40
216;BME280;64590;48.81286795;9.14184224;2023-01-28T11:33:48;99121.06;;;3.29;72.78
216;BME280;64590;48.81286795;9.14184224;2023-01-28T11:36:18;99116.72;;;3.20;72.90
216;BME280;64590;48.81286795;9.14184224;2023-01-28T11:38:51;99124.81;;;3.07;73.04
216;BME280;64590;48.81286795;9.14184224;2023-01-28T11:41:24;99122.19;;;3.20;73.67
216;BME280;64590;48.81286795;9.14184224;2023-01-28T11:43:52;99115.78;;;3.16;73.63
216;BME280;64590;48.81286795;9.14184224;2023-01-28T11:49:24;99116.41;;;3.12;72.47
216;BME280;64590;48.81286795;9.14184224;2023-01-28T11:51:57;99120.59;;;3.10;71.61
216;BME280;64590;48.81286795;9.14184224;2023-01-28T11:54:36;99115.09;;;3.19;72.30
216;BME280;64590;48.81286795;9.14184224;2023-01-28T11:57:20;99118.19;;;3.08;72.18
216;BME280;64590;48.81286795;9.14184224;2023-01-28T12:00:02;99114.31;;;3.01;73.24
216;BME280;64590;48.81286795;9.14184224;2023-01-28T12:02:52;99119.47;;;3.11;72.86
216;BME280;64590;48.81286795;9.14184224;2023-01-28T12:05:39;99117.53;;;3.03;73.51
216;BME280;64590;48.81286795;9.14184224;2023-01-28T12:08:18;99108.19;;;3.04;73.51
216;BME280;64590;48.81286795;9.14184224;2023-01-28T12:10:56;99110.28;;;2.98;73.92
216;BME280;64590;48.81286795;9.14184224;2023-01-28T12:13:35;99119.31;;;2.99;74.07
216;BME280;64590;48.81286795;9.14184224;2023-01-28T12:16:17;99117.25;;;3.04;73.33